• Join FlightAware (Why Join?)
  • Login
  • US Flag 
08:28AM EDT


 

Airport Tracker/Info


-or-


 

Live Flight TrackerFlight Track Log ✈ EJA396 ✈ 11-Jun-2013 ✈ KTOA - KSFO

Flight Track Log - Related Links

Times and Time Zones

All times are in EDT time to prevent confusion due to time zone crossing. See the EJA396 flight status page for this flight to view local times or setup timezone preferences in your user account.

Time Position Orientation Groundspeed Altitude Reporting Facility
EDT Latitude Longitude Course Direction KTS MPH feet Rate Location/Type
08:23PM 33.8150 -118.3547 277° West 186 214 1,200  Level Los Angeles Center
08:24PM 33.8228 -118.4306 277° West 213 245 3,600 1,800 Climbing Los Angeles Center
08:25PM 33.8164 -118.4894 263° West 224 258 5,000 600 Climbing Los Angeles Center
08:26PM 33.8056 -118.5769 262° West 221 254 5,000 1,260 Level Los Angeles Center
08:28PM 33.7972 -118.6692 264° West 241 277 8,000 3,120 Climbing Los Angeles Center
08:29PM 33.7864 -118.7625 262° West 283 326 11,500 3,540 Climbing Los Angeles Center
08:30PM 33.8314 -118.8783 295° West 338 389 15,400 3,180 Climbing Los Angeles Center
08:31PM 33.9000 -118.9675 313° West 358 412 18,100 2,460 Climbing Los Angeles Center
08:32PM 33.9708 -119.0600 313° West 371 427 20,600 2,220 Climbing Los Angeles Center
08:33PM 34.0428 -119.1556 312° West 384 442 22,800 1,740 Climbing Los Angeles Center
08:34PM 34.1200 -119.2581 312° West 408 470 24,300 2,220 Climbing Los Angeles Center
08:35PM 34.1972 -119.3589 313° West 410 472 27,400 2,580 Climbing Los Angeles Center
08:36PM 34.2814 -119.4706 312° West 380 437 29,700 1,560 Climbing Los Angeles Center
08:37PM 34.3533 -119.5672 312° West 384 442 30,700 960 Climbing Los Angeles Center
08:38PM 34.4317 -119.6700 313° West 411 473 31,700 1,020 Climbing Los Angeles Center
08:39PM 34.5131 -119.7783 312° West 431 496 32,900 1,140 Climbing Los Angeles Center
08:40PM 34.6058 -119.8764 319° Northwest 442 509 34,100 1,200 Climbing Los Angeles Center
08:41PM 34.6994 -119.9767 319° Northwest 448 516 35,500 900 Climbing Los Angeles Center
08:42PM 34.8108 -120.0994 318° Northwest 450 518 36,000 240 Climbing Los Angeles Center
08:43PM 34.8992 -120.1972 318° Northwest 457 526 36,000  Level Los Angeles Center
08:44PM 34.9922 -120.2986 318° Northwest 458 527 36,000  Level Los Angeles Center
08:45PM 35.0861 -120.4033 318° Northwest 459 528 36,000  Level Los Angeles Center
08:46PM 35.1967 -120.5258 318° Northwest 458 527 36,000  Level Los Angeles Center
08:47PM 35.2894 -120.6300 318° Northwest 458 527 36,000  Level Los Angeles Center
08:48PM 35.3825 -120.7356 317° Northwest 456 525 36,000  Level Los Angeles Center
08:49PM 35.4953 -120.8600 318° Northwest 455 524 36,000  Level Los Angeles Center
08:50PM 35.5992 -120.9544 324° Northwest 464 534 36,000  Level Los Angeles Center
08:51PM 35.6992 -121.0453 324° Northwest 461 531 36,000  Level Oakland Center
08:52PM 35.8283 -121.1561 325° Northwest 466 536 36,000  Level Oakland Center
08:53PM 35.9358 -121.2517 324° Northwest 471 542 36,000  Level Oakland Center
08:55PM 36.0422 -121.3456 324° Northwest 469 540 36,000  Level Oakland Center
08:56PM 36.1508 -121.4389 325° Northwest 470 541 36,000 -900 Level Oakland Center
08:57PM 36.2522 -121.5325 323° Northwest 458 527 34,200 -2,280 Descending Oakland Center
08:58PM 36.3564 -121.6200 326° Northwest 452 520 31,400 -2,880 Descending Oakland Center
08:59PM 36.4564 -121.7097 324° Northwest 443 510 28,400 -3,060 Descending Oakland Center
09:00PM 36.5589 -121.7989 325° Northwest 446 513 25,200 -3,480 Descending Oakland Center
09:00PM 36.6500 -121.8667 329° Northwest 497 572 22,400 -2,880 Descending Northern Cal TRACON
09:01PM 36.7333 -121.9500 321° Northwest 412 474 20,300 -2,340 Descending Northern Cal TRACON
09:02PM 36.8333 -121.9833 345° North 392 451 17,800 -2,520 Descending Northern Cal TRACON
09:03PM 36.9333 -122.0167 345° North 379 436 15,300 -2,400 Descending Northern Cal TRACON
09:04PM 37.0333 -122.0500 345° North 370 426 13,100 -2,280 Descending Northern Cal TRACON
09:05PM 37.1333 -122.0667 352° North 366 421 10,800 -2,220 Descending Northern Cal TRACON
09:06PM 37.1722 -122.0750 350° North 361 415 10,000 -1,800 Descending Oakland Center
09:07PM 37.2542 -122.0978 348° North 304 350 8,300 -1,860 Descending Oakland Center
09:08PM 37.3314 -122.1169 349° North 284 327 6,300 -1,500 Descending Oakland Center
09:08PM 37.3833 -122.1333 346° North 269 310 6,000 -420 Descending Northern Cal TRACON
09:09PM 37.4047 -122.1369 352° North 274 315 5,900 -780 Descending Oakland Center
09:10PM 37.4819 -122.1575 348° North 244 281 4,900 -1,020 Descending Oakland Center
09:11PM 37.5314 -122.1850 336° Northwest 204 235 3,900 -960 Descending Oakland Center
09:12PM 37.5594 -122.2428 302° West 203 234 3,000 -1,080 Descending Oakland Center
09:13PM 37.5833 -122.2958 300° West 189 217 1,700 -1,140 Descending Oakland Center
09:14PM 37.6017 -122.3381 299° West 160 184 700 -720 Descending Oakland Center
09:15PM 37.6156 -122.3672 301° West 143 165 300 -420 Descending Oakland Center
09:17PM 37.6167 -122.3667 322° Northwest  Level FlightAware Approximate